sensor_id;sensor_type;location;lat;lon;timestamp;P1;durP1;ratioP1;P2;durP2;ratioP2
4821;SDS011;2425;47.794;13.068;2022-12-11T00:01:31;0.30;;;0.30;;
4821;SDS011;2425;47.794;13.068;2022-12-11T00:03:58;0.30;;;0.30;;
4821;SDS011;2425;47.794;13.068;2022-12-11T00:06:25;0.30;;;0.30;;
4821;SDS011;2425;47.794;13.068;2022-12-11T00:08:52;0.30;;;0.30;;
4821;SDS011;2425;47.794;13.068;2022-12-11T00:11:19;0.30;;;0.30;;
4821;SDS011;2425;47.794;13.068;2022-12-11T00:13:48;0.30;;;0.30;;
4821;SDS011;2425;47.794;13.068;2022-12-11T00:16:14;0.30;;;0.30;;
4821;SDS011;2425;47.794;13.068;2022-12-11T00:18:41;0.30;;;0.30;;
4821;SDS011;2425;47.794;13.068;2022-12-11T00:21:10;0.40;;;0.40;;
4821;SDS011;2425;47.794;13.068;2022-12-11T00:23:38;0.20;;;0.20;;
4821;SDS011;2425;47.794;13.068;2022-12-11T00:26:06;0.30;;;0.30;;
4821;SDS011;2425;47.794;13.068;2022-12-11T00:28:33;0.20;;;0.20;;
4821;SDS011;2425;47.794;13.068;2022-12-11T00:31:03;0.30;;;0.30;;
4821;SDS011;2425;47.794;13.068;2022-12-11T00:33:31;0.30;;;0.30;;
4821;SDS011;2425;47.794;13.068;2022-12-11T00:35:57;0.30;;;0.30;;
4821;SDS011;2425;47.794;13.068;2022-12-11T00:38:24;0.30;;;0.30;;
4821;SDS011;2425;47.794;13.068;2022-12-11T00:40:51;0.30;;;0.30;;
4821;SDS011;2425;47.794;13.068;2022-12-11T00:43:18;0.30;;;0.30;;
4821;SDS011;2425;47.794;13.068;2022-12-11T00:45:45;0.27;;;0.27;;
4821;SDS011;2425;47.794;13.068;2022-12-11T00:48:14;0.40;;;0.40;;
4821;SDS011;2425;47.794;13.068;2022-12-11T00:50:40;0.30;;;0.30;;
4821;SDS011;2425;47.794;13.068;2022-12-11T00:53:08;0.40;;;0.40;;
4821;SDS011;2425;47.794;13.068;2022-12-11T00:55:35;0.30;;;0.30;;
4821;SDS011;2425;47.794;13.068;2022-12-11T00:58:02;0.20;;;0.20;;
4821;SDS011;2425;47.794;13.068;2022-12-11T01:00:29;0.30;;;0.30;;
4821;SDS011;2425;47.794;13.068;2022-12-11T01:02:56;0.20;;;0.20;;
4821;SDS011;2425;47.794;13.068;2022-12-11T01:05:24;0.33;;;0.33;;
4821;SDS011;2425;47.794;13.068;2022-12-11T01:07:51;0.20;;;0.20;;
4821;SDS011;2425;47.794;13.068;2022-12-11T01:10:17;0.30;;;0.30;;
4821;SDS011;2425;47.794;13.068;2022-12-11T01:12:50;0.27;;;0.27;;
4821;SDS011;2425;47.794;13.068;2022-12-11T01:15:17;0.30;;;0.30;;
4821;SDS011;2425;47.794;13.068;2022-12-11T01:17:44;0.30;;;0.30;;
4821;SDS011;2425;47.794;13.068;2022-12-11T01:20:11;0.30;;;0.30;;
4821;SDS011;2425;47.794;13.068;2022-12-11T01:22:39;0.20;;;0.20;;
4821;SDS011;2425;47.794;13.068;2022-12-11T01:25:06;0.30;;;0.30;;
4821;SDS011;2425;47.794;13.068;2022-12-11T01:27:34;0.30;;;0.30;;
4821;SDS011;2425;47.794;13.068;2022-12-11T01:30:01;0.30;;;0.30;;
4821;SDS011;2425;47.794;13.068;2022-12-11T01:32:29;0.30;;;0.30;;
4821;SDS011;2425;47.794;13.068;2022-12-11T01:34:56;0.30;;;0.30;;
4821;SDS011;2425;47.794;13.068;2022-12-11T01:37:23;0.30;;;0.30;;
4821;SDS011;2425;47.794;13.068;2022-12-11T01:39:51;0.30;;;0.30;;
4821;SDS011;2425;47.794;13.068;2022-12-11T01:42:18;0.30;;;0.30;;
4821;SDS011;2425;47.794;13.068;2022-12-11T01:47:53;0.20;;;0.20;;
4821;SDS011;2425;47.794;13.068;2022-12-11T01:50:22;0.30;;;0.30;;
4821;SDS011;2425;47.794;13.068;2022-12-11T01:52:49;0.30;;;0.30;;
4821;SDS011;2425;47.794;13.068;2022-12-11T01:55:17;0.40;;;0.40;;
4821;SDS011;2425;47.794;13.068;2022-12-11T01:57:45;0.30;;;0.30;;
4821;SDS011;2425;47.794;13.068;2022-12-11T02:00:13;0.20;;;0.20;;
4821;SDS011;2425;47.794;13.068;2022-12-11T02:02:41;0.30;;;0.30;;
4821;SDS011;2425;47.794;13.068;2022-12-11T02:05:08;0.30;;;0.30;;
4821;SDS011;2425;47.794;13.068;2022-12-11T02:07:36;0.30;;;0.30;;
4821;SDS011;2425;47.794;13.068;2022-12-11T02:10:05;0.30;;;0.30;;
4821;SDS011;2425;47.794;13.068;2022-12-11T02:12:35;0.20;;;0.20;;
4821;SDS011;2425;47.794;13.068;2022-12-11T02:15:08;0.30;;;0.30;;
4821;SDS011;2425;47.794;13.068;2022-12-11T02:17:39;0.30;;;0.30;;
4821;SDS011;2425;47.794;13.068;2022-12-11T02:20:08;0.23;;;0.23;;
4821;SDS011;2425;47.794;13.068;2022-12-11T02:22:46;0.40;;;0.30;;
4821;SDS011;2425;47.794;13.068;2022-12-11T02:25:33;0.30;;;0.30;;
4821;SDS011;2425;47.794;13.068;2022-12-11T02:28:10;0.20;;;0.20;;
4821;SDS011;2425;47.794;13.068;2022-12-11T02:30:43;0.20;;;0.20;;
4821;SDS011;2425;47.794;13.068;2022-12-11T02:33:14;0.20;;;0.20;;
4821;SDS011;2425;47.794;13.068;2022-12-11T02:35:42;0.20;;;0.20;;
4821;SDS011;2425;47.794;13.068;2022-12-11T02:38:13;0.30;;;0.30;;
4821;SDS011;2425;47.794;13.068;2022-12-11T02:40:44;0.30;;;0.30;;
4821;SDS011;2425;47.794;13.068;2022-12-11T02:43:14;0.20;;;0.20;;
4821;SDS011;2425;47.794;13.068;2022-12-11T02:45:41;0.30;;;0.30;;
4821;SDS011;2425;47.794;13.068;2022-12-11T02:48:09;0.30;;;0.30;;
4821;SDS011;2425;47.794;13.068;2022-12-11T02:50:38;0.30;;;0.30;;
4821;SDS011;2425;47.794;13.068;2022-12-11T02:53:08;0.30;;;0.30;;
4821;SDS011;2425;47.794;13.068;2022-12-11T02:55:46;0.30;;;0.30;;
4821;SDS011;2425;47.794;13.068;2022-12-11T02:58:31;0.20;;;0.20;;
4821;SDS011;2425;47.794;13.068;2022-12-11T03:01:09;0.30;;;0.30;;
4821;SDS011;2425;47.794;13.068;2022-12-11T03:03:35;0.30;;;0.30;;
4821;SDS011;2425;47.794;13.068;2022-12-11T03:06:02;0.30;;;0.30;;
4821;SDS011;2425;47.794;13.068;2022-12-11T03:08:30;0.30;;;0.30;;
4821;SDS011;2425;47.794;13.068;2022-12-11T03:10:57;0.20;;;0.20;;
4821;SDS011;2425;47.794;13.068;2022-12-11T03:13:24;0.20;;;0.20;;
4821;SDS011;2425;47.794;13.068;2022-12-11T03:15:56;0.20;;;0.20;;
4821;SDS011;2425;47.794;13.068;2022-12-11T03:18:30;0.30;;;0.30;;
4821;SDS011;2425;47.794;13.068;2022-12-11T03:21:02;0.30;;;0.30;;
4821;SDS011;2425;47.794;13.068;2022-12-11T03:23:31;0.20;;;0.20;;
4821;SDS011;2425;47.794;13.068;2022-12-11T03:26:00;0.27;;;0.27;;
4821;SDS011;2425;47.794;13.068;2022-12-11T03:28:29;0.30;;;0.30;;
4821;SDS011;2425;47.794;13.068;2022-12-11T03:31:01;0.30;;;0.30;;
4821;SDS011;2425;47.794;13.068;2022-12-11T03:33:31;0.20;;;0.20;;
4821;SDS011;2425;47.794;13.068;2022-12-11T03:36:02;0.27;;;0.27;;
4821;SDS011;2425;47.794;13.068;2022-12-11T03:38:32;0.30;;;0.30;;
4821;SDS011;2425;47.794;13.068;2022-12-11T03:41:02;0.30;;;0.30;;
4821;SDS011;2425;47.794;13.068;2022-12-11T03:43:29;0.30;;;0.30;;
4821;SDS011;2425;47.794;13.068;2022-12-11T03:45:57;0.20;;;0.20;;
4821;SDS011;2425;47.794;13.068;2022-12-11T03:48:27;0.30;;;0.30;;
4821;SDS011;2425;47.794;13.068;2022-12-11T03:50:57;0.20;;;0.20;;
4821;SDS011;2425;47.794;13.068;2022-12-11T03:53:24;0.27;;;0.27;;
4821;SDS011;2425;47.794;13.068;2022-12-11T03:55:52;0.30;;;0.30;;
4821;SDS011;2425;47.794;13.068;2022-12-11T03:58:19;0.30;;;0.30;;
4821;SDS011;2425;47.794;13.068;2022-12-11T04:00:46;0.20;;;0.20;;
4821;SDS011;2425;47.794;13.068;2022-12-11T04:03:13;0.30;;;0.30;;
4821;SDS011;2425;47.794;13.068;2022-12-11T04:05:42;0.30;;;0.30;;
4821;SDS011;2425;47.794;13.068;2022-12-11T04:08:10;0.30;;;0.30;;
4821;SDS011;2425;47.794;13.068;2022-12-11T04:10:37;0.30;;;0.30;;
4821;SDS011;2425;47.794;13.068;2022-12-11T04:13:04;0.30;;;0.20;;
4821;SDS011;2425;47.794;13.068;2022-12-11T04:15:31;0.30;;;0.30;;
4821;SDS011;2425;47.794;13.068;2022-12-11T04:17:57;0.30;;;0.30;;
4821;SDS011;2425;47.794;13.068;2022-12-11T04:20:42;0.30;;;0.30;;
4821;SDS011;2425;47.794;13.068;2022-12-11T04:23:26;0.30;;;0.30;;
4821;SDS011;2425;47.794;13.068;2022-12-11T04:26:11;0.30;;;0.30;;
4821;SDS011;2425;47.794;13.068;2022-12-11T04:28:39;0.20;;;0.20;;
4821;SDS011;2425;47.794;13.068;2022-12-11T04:31:09;0.30;;;0.30;;
4821;SDS011;2425;47.794;13.068;2022-12-11T04:33:36;0.30;;;0.30;;
4821;SDS011;2425;47.794;13.068;2022-12-11T04:36:05;0.30;;;0.30;;
4821;SDS011;2425;47.794;13.068;2022-12-11T04:38:32;0.30;;;0.30;;
4821;SDS011;2425;47.794;13.068;2022-12-11T04:40:59;0.30;;;0.30;;
4821;SDS011;2425;47.794;13.068;2022-12-11T04:43:26;0.20;;;0.20;;
4821;SDS011;2425;47.794;13.068;2022-12-11T04:45:59;0.30;;;0.30;;
4821;SDS011;2425;47.794;13.068;2022-12-11T04:48:26;0.30;;;0.30;;
4821;SDS011;2425;47.794;13.068;2022-12-11T04:50:53;0.30;;;0.30;;
4821;SDS011;2425;47.794;13.068;2022-12-11T04:53:21;0.20;;;0.20;;
4821;SDS011;2425;47.794;13.068;2022-12-11T04:55:48;0.20;;;0.20;;
4821;SDS011;2425;47.794;13.068;2022-12-11T04:58:15;0.30;;;0.30;;
4821;SDS011;2425;47.794;13.068;2022-12-11T05:00:42;0.27;;;0.27;;
4821;SDS011;2425;47.794;13.068;2022-12-11T05:03:09;0.30;;;0.30;;
4821;SDS011;2425;47.794;13.068;2022-12-11T05:05:36;0.30;;;0.30;;
4821;SDS011;2425;47.794;13.068;2022-12-11T05:08:03;0.30;;;0.30;;
4821;SDS011;2425;47.794;13.068;2022-12-11T05:10:31;0.30;;;0.30;;
4821;SDS011;2425;47.794;13.068;2022-12-11T05:12:58;0.30;;;0.30;;
4821;SDS011;2425;47.794;13.068;2022-12-11T05:15:25;0.30;;;0.30;;
4821;SDS011;2425;47.794;13.068;2022-12-11T05:17:51;0.20;;;0.20;;
4821;SDS011;2425;47.794;13.068;2022-12-11T05:20:18;0.20;;;0.20;;
4821;SDS011;2425;47.794;13.068;2022-12-11T05:22:45;0.20;;;0.20;;
4821;SDS011;2425;47.794;13.068;2022-12-11T05:25:11;0.30;;;0.30;;
4821;SDS011;2425;47.794;13.068;2022-12-11T05:27:40;0.30;;;0.30;;
4821;SDS011;2425;47.794;13.068;2022-12-11T05:30:07;0.30;;;0.30;;
4821;SDS011;2425;47.794;13.068;2022-12-11T05:32:34;0.20;;;0.20;;
4821;SDS011;2425;47.794;13.068;2022-12-11T05:35:01;0.30;;;0.30;;
4821;SDS011;2425;47.794;13.068;2022-12-11T05:37:28;0.23;;;0.23;;
4821;SDS011;2425;47.794;13.068;2022-12-11T05:39:55;0.20;;;0.20;;
4821;SDS011;2425;47.794;13.068;2022-12-11T05:42:22;0.20;;;0.20;;
4821;SDS011;2425;47.794;13.068;2022-12-11T05:44:50;0.30;;;0.30;;
4821;SDS011;2425;47.794;13.068;2022-12-11T05:47:17;0.20;;;0.20;;
4821;SDS011;2425;47.794;13.068;2022-12-11T05:49:44;0.20;;;0.20;;
4821;SDS011;2425;47.794;13.068;2022-12-11T05:52:11;0.30;;;0.30;;
4821;SDS011;2425;47.794;13.068;2022-12-11T05:54:38;0.20;;;0.20;;
4821;SDS011;2425;47.794;13.068;2022-12-11T05:57:04;0.27;;;0.27;;
4821;SDS011;2425;47.794;13.068;2022-12-11T05:59:31;0.30;;;0.30;;
4821;SDS011;2425;47.794;13.068;2022-12-11T06:01:59;0.20;;;0.20;;
4821;SDS011;2425;47.794;13.068;2022-12-11T06:04:26;0.30;;;0.30;;
4821;SDS011;2425;47.794;13.068;2022-12-11T06:06:53;0.30;;;0.30;;
4821;SDS011;2425;47.794;13.068;2022-12-11T06:09:19;0.20;;;0.20;;
4821;SDS011;2425;47.794;13.068;2022-12-11T06:11:46;0.30;;;0.30;;
4821;SDS011;2425;47.794;13.068;2022-12-11T06:14:13;0.30;;;0.30;;
4821;SDS011;2425;47.794;13.068;2022-12-11T06:16:40;0.30;;;0.30;;
4821;SDS011;2425;47.794;13.068;2022-12-11T06:19:10;0.20;;;0.20;;
4821;SDS011;2425;47.794;13.068;2022-12-11T06:21:38;0.20;;;0.20;;
4821;SDS011;2425;47.794;13.068;2022-12-11T06:24:05;0.20;;;0.20;;
4821;SDS011;2425;47.794;13.068;2022-12-11T06:26:32;0.20;;;0.20;;
4821;SDS011;2425;47.794;13.068;2022-12-11T06:28:59;0.20;;;0.20;;
4821;SDS011;2425;47.794;13.068;2022-12-11T06:31:26;0.30;;;0.30;;
4821;SDS011;2425;47.794;13.068;2022-12-11T06:33:52;0.30;;;0.30;;
4821;SDS011;2425;47.794;13.068;2022-12-11T06:36:21;0.27;;;0.27;;
4821;SDS011;2425;47.794;13.068;2022-12-11T06:38:49;0.20;;;0.20;;
4821;SDS011;2425;47.794;13.068;2022-12-11T06:41:16;0.30;;;0.30;;
4821;SDS011;2425;47.794;13.068;2022-12-11T06:43:43;0.30;;;0.30;;
4821;SDS011;2425;47.794;13.068;2022-12-11T06:46:11;0.20;;;0.20;;
4821;SDS011;2425;47.794;13.068;2022-12-11T06:48:39;0.20;;;0.20;;
4821;SDS011;2425;47.794;13.068;2022-12-11T06:51:06;0.67;;;0.30;;
4821;SDS011;2425;47.794;13.068;2022-12-11T06:53:35;0.20;;;0.20;;
4821;SDS011;2425;47.794;13.068;2022-12-11T06:56:02;0.30;;;0.30;;
4821;SDS011;2425;47.794;13.068;2022-12-11T06:58:29;0.30;;;0.30;;
4821;SDS011;2425;47.794;13.068;2022-12-11T07:00:56;0.20;;;0.20;;
4821;SDS011;2425;47.794;13.068;2022-12-11T07:03:23;0.30;;;0.30;;
4821;SDS011;2425;47.794;13.068;2022-12-11T07:05:50;0.30;;;0.30;;
4821;SDS011;2425;47.794;13.068;2022-12-11T07:08:16;0.20;;;0.20;;
4821;SDS011;2425;47.794;13.068;2022-12-11T07:10:44;0.30;;;0.30;;
4821;SDS011;2425;47.794;13.068;2022-12-11T07:13:11;0.30;;;0.30;;
4821;SDS011;2425;47.794;13.068;2022-12-11T07:15:38;0.30;;;0.30;;
4821;SDS011;2425;47.794;13.068;2022-12-11T07:18:05;0.30;;;0.30;;
4821;SDS011;2425;47.794;13.068;2022-12-11T07:20:31;0.30;;;0.30;;
4821;SDS011;2425;47.794;13.068;2022-12-11T07:22:58;0.20;;;0.20;;
4821;SDS011;2425;47.794;13.068;2022-12-11T07:25:25;0.30;;;0.30;;
4821;SDS011;2425;47.794;13.068;2022-12-11T07:27:53;0.27;;;0.27;;
4821;SDS011;2425;47.794;13.068;2022-12-11T07:30:20;0.30;;;0.30;;
4821;SDS011;2425;47.794;13.068;2022-12-11T07:32:46;0.20;;;0.20;;
4821;SDS011;2425;47.794;13.068;2022-12-11T07:35:13;0.20;;;0.20;;
4821;SDS011;2425;47.794;13.068;2022-12-11T07:37:40;0.20;;;0.20;;
4821;SDS011;2425;47.794;13.068;2022-12-11T07:40:07;0.20;;;0.20;;
4821;SDS011;2425;47.794;13.068;2022-12-11T07:42:35;0.30;;;0.30;;
4821;SDS011;2425;47.794;13.068;2022-12-11T07:45:03;0.30;;;0.30;;
4821;SDS011;2425;47.794;13.068;2022-12-11T07:47:31;0.20;;;0.20;;
4821;SDS011;2425;47.794;13.068;2022-12-11T07:49:58;0.20;;;0.20;;
4821;SDS011;2425;47.794;13.068;2022-12-11T07:52:25;0.20;;;0.20;;
4821;SDS011;2425;47.794;13.068;2022-12-11T07:54:52;0.30;;;0.30;;
4821;SDS011;2425;47.794;13.068;2022-12-11T07:57:19;0.20;;;0.20;;
4821;SDS011;2425;47.794;13.068;2022-12-11T07:59:45;0.20;;;0.20;;
4821;SDS011;2425;47.794;13.068;2022-12-11T08:02:13;0.40;;;0.40;;
4821;SDS011;2425;47.794;13.068;2022-12-11T08:04:40;0.60;;;0.60;;
4821;SDS011;2425;47.794;13.068;2022-12-11T08:07:07;1.20;;;1.20;;
4821;SDS011;2425;47.794;13.068;2022-12-11T08:09:34;1.20;;;1.20;;
4821;SDS011;2425;47.794;13.068;2022-12-11T08:12:00;1.20;;;1.20;;
4821;SDS011;2425;47.794;13.068;2022-12-11T08:14:27;1.23;;;1.23;;
4821;SDS011;2425;47.794;13.068;2022-12-11T08:16:54;1.10;;;1.10;;
4821;SDS011;2425;47.794;13.068;2022-12-11T08:19:23;1.03;;;1.03;;
4821;SDS011;2425;47.794;13.068;2022-12-11T08:21:50;1.60;;;1.50;;
4821;SDS011;2425;47.794;13.068;2022-12-11T08:24:16;1.30;;;1.30;;
4821;SDS011;2425;47.794;13.068;2022-12-11T08:26:44;1.40;;;1.40;;
4821;SDS011;2425;47.794;13.068;2022-12-11T08:29:11;1.43;;;1.43;;
4821;SDS011;2425;47.794;13.068;2022-12-11T08:31:38;1.13;;;1.13;;
4821;SDS011;2425;47.794;13.068;2022-12-11T08:34:05;1.43;;;1.40;;
4821;SDS011;2425;47.794;13.068;2022-12-11T08:36:33;1.30;;;1.30;;
4821;SDS011;2425;47.794;13.068;2022-12-11T08:39:00;1.13;;;1.13;;
4821;SDS011;2425;47.794;13.068;2022-12-11T08:41:28;1.40;;;1.40;;
4821;SDS011;2425;47.794;13.068;2022-12-11T08:43:55;1.10;;;1.10;;
4821;SDS011;2425;47.794;13.068;2022-12-11T08:46:23;1.27;;;1.27;;
4821;SDS011;2425;47.794;13.068;2022-12-11T08:48:51;1.40;;;1.40;;
4821;SDS011;2425;47.794;13.068;2022-12-11T08:51:20;1.17;;;1.17;;
4821;SDS011;2425;47.794;13.068;2022-12-11T08:53:50;1.60;;;1.60;;
4821;SDS011;2425;47.794;13.068;2022-12-11T08:56:20;1.37;;;1.37;;
4821;SDS011;2425;47.794;13.068;2022-12-11T08:58:47;1.40;;;1.40;;
4821;SDS011;2425;47.794;13.068;2022-12-11T09:01:15;1.33;;;1.33;;
4821;SDS011;2425;47.794;13.068;2022-12-11T09:03:45;1.60;;;1.10;;
4821;SDS011;2425;47.794;13.068;2022-12-11T09:15:02;12.90;;;9.10;;
4821;SDS011;2425;47.794;13.068;2022-12-11T09:17:29;12.80;;;9.03;;
4821;SDS011;2425;47.794;13.068;2022-12-11T09:19:55;11.47;;;8.10;;
4821;SDS011;2425;47.794;13.068;2022-12-11T09:22:22;8.53;;;7.47;;
4821;SDS011;2425;47.794;13.068;2022-12-11T09:24:49;10.37;;;7.87;;
4821;SDS011;2425;47.794;13.068;2022-12-11T09:27:16;17.63;;;7.80;;
4821;SDS011;2425;47.794;13.068;2022-12-11T09:29:45;8.83;;;6.87;;
4821;SDS011;2425;47.794;13.068;2022-12-11T09:38:25;8.53;;;7.53;;
4821;SDS011;2425;47.794;13.068;2022-12-11T09:40:52;7.60;;;6.47;;
4821;SDS011;2425;47.794;13.068;2022-12-11T09:43:23;11.17;;;7.77;;
4821;SDS011;2425;47.794;13.068;2022-12-11T09:45:58;7.20;;;6.60;;
4821;SDS011;2425;47.794;13.068;2022-12-11T09:48:27;7.63;;;6.90;;
4821;SDS011;2425;47.794;13.068;2022-12-11T09:50:54;7.07;;;6.37;;
4821;SDS011;2425;47.794;13.068;2022-12-11T09:53:24;6.90;;;6.20;;
4821;SDS011;2425;47.794;13.068;2022-12-11T09:55:55;8.30;;;7.17;;
4821;SDS011;2425;47.794;13.068;2022-12-11T09:58:26;7.67;;;6.93;;
4821;SDS011;2425;47.794;13.068;2022-12-11T10:00:58;36.77;;;17.80;;
4821;SDS011;2425;47.794;13.068;2022-12-11T10:03:35;59.90;;;30.07;;
4821;SDS011;2425;47.794;13.068;2022-12-11T10:06:11;31.83;;;18.23;;
4821;SDS011;2425;47.794;13.068;2022-12-11T10:08:44;18.13;;;13.70;;
4821;SDS011;2425;47.794;13.068;2022-12-11T10:11:20;20.93;;;12.70;;
4821;SDS011;2425;47.794;13.068;2022-12-11T10:13:59;25.07;;;14.00;;
4821;SDS011;2425;47.794;13.068;2022-12-11T10:16:32;21.63;;;12.57;;
4821;SDS011;2425;47.794;13.068;2022-12-11T10:19:01;20.27;;;12.93;;
4821;SDS011;2425;47.794;13.068;2022-12-11T10:21:29;25.17;;;13.80;;
4821;SDS011;2425;47.794;13.068;2022-12-11T10:24:03;26.23;;;13.70;;
4821;SDS011;2425;47.794;13.068;2022-12-11T10:26:31;21.23;;;11.70;;
4821;SDS011;2425;47.794;13.068;2022-12-11T10:28:58;19.17;;;11.50;;
4821;SDS011;2425;47.794;13.068;2022-12-11T10:31:27;17.47;;;10.10;;
4821;SDS011;2425;47.794;13.068;2022-12-11T10:33:58;13.30;;;9.43;;
4821;SDS011;2425;47.794;13.068;2022-12-11T10:36:27;23.67;;;12.37;;
4821;SDS011;2425;47.794;13.068;2022-12-11T10:38:55;22.40;;;11.17;;
4821;SDS011;2425;47.794;13.068;2022-12-11T10:41:31;25.77;;;11.60;;
4821;SDS011;2425;47.794;13.068;2022-12-11T10:44:11;25.53;;;11.83;;
4821;SDS011;2425;47.794;13.068;2022-12-11T10:46:40;24.03;;;11.67;;
4821;SDS011;2425;47.794;13.068;2022-12-11T10:49:17;23.70;;;11.70;;
4821;SDS011;2425;47.794;13.068;2022-12-11T10:51:46;50.33;;;28.87;;
4821;SDS011;2425;47.794;13.068;2022-12-11T10:54:16;47.77;;;19.77;;
4821;SDS011;2425;47.794;13.068;2022-12-11T10:56:59;16.60;;;10.57;;
4821;SDS011;2425;47.794;13.068;2022-12-11T10:59:30;29.37;;;13.40;;
4821;SDS011;2425;47.794;13.068;2022-12-11T11:02:00;20.33;;;10.47;;
4821;SDS011;2425;47.794;13.068;2022-12-11T11:04:29;12.93;;;9.07;;
4821;SDS011;2425;47.794;13.068;2022-12-11T11:07:00;14.73;;;9.10;;
4821;SDS011;2425;47.794;13.068;2022-12-11T11:09:30;14.20;;;8.30;;
4821;SDS011;2425;47.794;13.068;2022-12-11T11:12:02;12.80;;;8.20;;
4821;SDS011;2425;47.794;13.068;2022-12-11T11:14:29;17.87;;;9.03;;
4821;SDS011;2425;47.794;13.068;2022-12-11T11:16:55;12.53;;;8.27;;
4821;SDS011;2425;47.794;13.068;2022-12-11T11:19:23;13.90;;;9.40;;
4821;SDS011;2425;47.794;13.068;2022-12-11T11:21:52;12.80;;;8.40;;
4821;SDS011;2425;47.794;13.068;2022-12-11T11:24:25;14.83;;;9.37;;
4821;SDS011;2425;47.794;13.068;2022-12-11T11:26:54;48.50;;;30.40;;
4821;SDS011;2425;47.794;13.068;2022-12-11T11:29:24;31.93;;;21.90;;
4821;SDS011;2425;47.794;13.068;2022-12-11T11:31:54;22.80;;;13.37;;
4821;SDS011;2425;47.794;13.068;2022-12-11T11:34:20;16.73;;;10.73;;
4821;SDS011;2425;47.794;13.068;2022-12-11T11:36:54;14.60;;;9.23;;
4821;SDS011;2425;47.794;13.068;2022-12-11T11:39:22;13.63;;;9.50;;
4821;SDS011;2425;47.794;13.068;2022-12-11T11:41:54;13.70;;;9.53;;
4821;SDS011;2425;47.794;13.068;2022-12-11T11:44:26;13.27;;;8.77;;
4821;SDS011;2425;47.794;13.068;2022-12-11T11:46:57;16.90;;;9.63;;
4821;SDS011;2425;47.794;13.068;2022-12-11T11:49:27;21.07;;;9.10;;
4821;SDS011;2425;47.794;13.068;2022-12-11T11:52:07;11.37;;;7.77;;
4821;SDS011;2425;47.794;13.068;2022-12-11T11:54:39;13.23;;;8.30;;
4821;SDS011;2425;47.794;13.068;2022-12-11T11:57:12;14.40;;;8.70;;
4821;SDS011;2425;47.794;13.068;2022-12-11T11:59:43;10.80;;;7.87;;
4821;SDS011;2425;47.794;13.068;2022-12-11T12:02:14;12.63;;;8.10;;
4821;SDS011;2425;47.794;13.068;2022-12-11T12:04:42;14.53;;;7.60;;
4821;SDS011;2425;47.794;13.068;2022-12-11T12:07:13;11.13;;;7.00;;
4821;SDS011;2425;47.794;13.068;2022-12-11T12:09:48;13.90;;;6.50;;
4821;SDS011;2425;47.794;13.068;2022-12-11T12:12:21;11.60;;;6.80;;
4821;SDS011;2425;47.794;13.068;2022-12-11T12:15:05;6.33;;;5.40;;
4821;SDS011;2425;47.794;13.068;2022-12-11T12:17:44;11.57;;;6.23;;
4821;SDS011;2425;47.794;13.068;2022-12-11T12:20:16;7.40;;;5.50;;
4821;SDS011;2425;47.794;13.068;2022-12-11T12:22:50;9.43;;;5.80;;
4821;SDS011;2425;47.794;13.068;2022-12-11T12:25:24;8.63;;;5.50;;
4821;SDS011;2425;47.794;13.068;2022-12-11T12:27:55;8.30;;;4.83;;
4821;SDS011;2425;47.794;13.068;2022-12-11T12:30:27;4.90;;;4.50;;
4821;SDS011;2425;47.794;13.068;2022-12-11T12:33:01;6.87;;;5.80;;
4821;SDS011;2425;47.794;13.068;2022-12-11T12:35:37;9.77;;;5.63;;
4821;SDS011;2425;47.794;13.068;2022-12-11T12:38:07;16.53;;;6.33;;
4821;SDS011;2425;47.794;13.068;2022-12-11T12:40:38;17.87;;;12.53;;
4821;SDS011;2425;47.794;13.068;2022-12-11T12:43:17;54.00;;;35.03;;
4821;SDS011;2425;47.794;13.068;2022-12-11T12:45:58;16.00;;;9.47;;
4821;SDS011;2425;47.794;13.068;2022-12-11T12:48:32;10.97;;;6.87;;
4821;SDS011;2425;47.794;13.068;2022-12-11T12:50:58;10.80;;;7.60;;
4821;SDS011;2425;47.794;13.068;2022-12-11T12:53:26;8.23;;;6.70;;
4821;SDS011;2425;47.794;13.068;2022-12-11T12:55:54;7.20;;;6.13;;
4821;SDS011;2425;47.794;13.068;2022-12-11T12:58:23;7.67;;;5.80;;
4821;SDS011;2425;47.794;13.068;2022-12-11T13:00:51;7.80;;;6.10;;
4821;SDS011;2425;47.794;13.068;2022-12-11T13:03:20;9.10;;;6.17;;
4821;SDS011;2425;47.794;13.068;2022-12-11T13:05:54;9.60;;;5.20;;
4821;SDS011;2425;47.794;13.068;2022-12-11T13:08:24;5.63;;;5.13;;
4821;SDS011;2425;47.794;13.068;2022-12-11T13:10:57;11.70;;;5.47;;
4821;SDS011;2425;47.794;13.068;2022-12-11T13:13:31;6.13;;;5.03;;
4821;SDS011;2425;47.794;13.068;2022-12-11T13:16:06;11.90;;;5.97;;
4821;SDS011;2425;47.794;13.068;2022-12-11T13:18:48;5.57;;;5.03;;
4821;SDS011;2425;47.794;13.068;2022-12-11T13:21:23;6.20;;;5.20;;
4821;SDS011;2425;47.794;13.068;2022-12-11T13:23:52;15.83;;;5.77;;
4821;SDS011;2425;47.794;13.068;2022-12-11T13:26:26;131.40;;;66.13;;
4821;SDS011;2425;47.794;13.068;2022-12-11T13:28:53;61.53;;;39.00;;
4821;SDS011;2425;47.794;13.068;2022-12-11T13:31:25;25.47;;;17.40;;
4821;SDS011;2425;47.794;13.068;2022-12-11T13:33:57;17.83;;;10.90;;
4821;SDS011;2425;47.794;13.068;2022-12-11T13:36:32;12.43;;;9.67;;
4821;SDS011;2425;47.794;13.068;2022-12-11T13:39:02;15.30;;;9.60;;
4821;SDS011;2425;47.794;13.068;2022-12-11T13:41:32;9.87;;;7.27;;
4821;SDS011;2425;47.794;13.068;2022-12-11T13:44:00;9.70;;;6.40;;
4821;SDS011;2425;47.794;13.068;2022-12-11T13:46:28;9.10;;;6.60;;
4821;SDS011;2425;47.794;13.068;2022-12-11T13:48:58;60.73;;;33.60;;
4821;SDS011;2425;47.794;13.068;2022-12-11T13:51:26;126.70;;;73.17;;
4821;SDS011;2425;47.794;13.068;2022-12-11T13:54:01;43.70;;;23.27;;
4821;SDS011;2425;47.794;13.068;2022-12-11T13:56:32;18.23;;;12.03;;
4821;SDS011;2425;47.794;13.068;2022-12-11T13:58:59;14.03;;;9.50;;
4821;SDS011;2425;47.794;13.068;2022-12-11T14:01:27;14.77;;;10.33;;
4821;SDS011;2425;47.794;13.068;2022-12-11T14:03:58;11.60;;;8.77;;
4821;SDS011;2425;47.794;13.068;2022-12-11T14:06:26;14.50;;;8.77;;
4821;SDS011;2425;47.794;13.068;2022-12-11T14:08:54;11.17;;;8.10;;
4821;SDS011;2425;47.794;13.068;2022-12-11T14:11:23;11.60;;;7.47;;
4821;SDS011;2425;47.794;13.068;2022-12-11T14:13:52;12.17;;;7.63;;
4821;SDS011;2425;47.794;13.068;2022-12-11T14:16:20;28.37;;;15.40;;
4821;SDS011;2425;47.794;13.068;2022-12-11T14:18:48;40.63;;;25.60;;
4821;SDS011;2425;47.794;13.068;2022-12-11T14:21:17;19.47;;;13.40;;
4821;SDS011;2425;47.794;13.068;2022-12-11T14:23:49;10.50;;;8.37;;
4821;SDS011;2425;47.794;13.068;2022-12-11T14:26:18;11.50;;;7.83;;
4821;SDS011;2425;47.794;13.068;2022-12-11T14:28:46;9.90;;;7.77;;
4821;SDS011;2425;47.794;13.068;2022-12-11T14:31:13;9.57;;;7.60;;
4821;SDS011;2425;47.794;13.068;2022-12-11T14:33:42;9.60;;;7.73;;
4821;SDS011;2425;47.794;13.068;2022-12-11T14:36:10;10.30;;;6.97;;
4821;SDS011;2425;47.794;13.068;2022-12-11T14:38:41;9.13;;;7.30;;
4821;SDS011;2425;47.794;13.068;2022-12-11T14:41:10;7.77;;;6.93;;
4821;SDS011;2425;47.794;13.068;2022-12-11T14:43:40;7.50;;;6.37;;
4821;SDS011;2425;47.794;13.068;2022-12-11T14:46:09;8.60;;;6.73;;
4821;SDS011;2425;47.794;13.068;2022-12-11T14:48:42;9.23;;;6.57;;
4821;SDS011;2425;47.794;13.068;2022-12-11T14:51:10;6.30;;;5.70;;
4821;SDS011;2425;47.794;13.068;2022-12-11T14:53:41;10.70;;;8.30;;
4821;SDS011;2425;47.794;13.068;2022-12-11T14:56:14;23.87;;;15.30;;
4821;SDS011;2425;47.794;13.068;2022-12-11T14:58:44;19.30;;;14.20;;
4821;SDS011;2425;47.794;13.068;2022-12-11T15:01:21;11.07;;;7.83;;
4821;SDS011;2425;47.794;13.068;2022-12-11T15:03:49;9.37;;;7.10;;
4821;SDS011;2425;47.794;13.068;2022-12-11T15:06:27;8.17;;;6.50;;
4821;SDS011;2425;47.794;13.068;2022-12-11T15:08:56;8.43;;;7.00;;
4821;SDS011;2425;47.794;13.068;2022-12-11T15:11:33;9.80;;;7.17;;
4821;SDS011;2425;47.794;13.068;2022-12-11T15:14:02;16.27;;;8.80;;
4821;SDS011;2425;47.794;13.068;2022-12-11T15:16:31;12.43;;;7.87;;
4821;SDS011;2425;47.794;13.068;2022-12-11T15:18:59;9.37;;;6.90;;
4821;SDS011;2425;47.794;13.068;2022-12-11T15:21:27;10.07;;;6.70;;
4821;SDS011;2425;47.794;13.068;2022-12-11T15:23:59;8.23;;;6.73;;
4821;SDS011;2425;47.794;13.068;2022-12-11T15:26:31;9.67;;;7.23;;